createdAt,value
2022-11-30T00:03:08.587Z,1011.555
2022-11-30T00:23:07.445Z,1011.495
2022-11-30T00:43:07.144Z,1011.589
2022-11-30T01:03:08.852Z,1011.602
2022-11-30T01:23:07.532Z,1011.659
2022-11-30T01:43:07.357Z,1011.855
2022-11-30T02:03:08.001Z,1011.809
2022-11-30T02:23:07.911Z,1011.842
2022-11-30T02:43:07.766Z,1011.85
2022-11-30T03:03:08.661Z,1011.762
2022-11-30T03:23:07.397Z,1011.964
2022-11-30T03:43:08.272Z,1011.966
2022-11-30T04:03:08.162Z,1012.044
2022-11-30T04:23:07.977Z,1012.104
2022-11-30T04:43:07.942Z,1012.186
2022-11-30T05:03:08.775Z,1012.127
2022-11-30T05:23:07.536Z,1012.416
2022-11-30T05:43:07.589Z,1012.453
2022-11-30T06:03:08.739Z,1012.606
2022-11-30T06:23:07.479Z,1012.563
2022-11-30T06:43:07.390Z,1012.747
2022-11-30T07:03:08.193Z,1012.947
2022-11-30T07:23:07.887Z,1012.998
2022-11-30T07:43:07.893Z,1013.076
2022-11-30T08:03:08.754Z,1013.26
2022-11-30T08:23:07.573Z,1013.376
2022-11-30T08:43:07.469Z,1013.498
2022-11-30T09:03:08.366Z,1013.694
2022-11-30T09:23:07.165Z,1013.801
2022-11-30T09:43:08.056Z,1013.823
2022-11-30T10:03:09.283Z,1013.915
2022-11-30T10:23:08.157Z,1013.906
2022-11-30T10:43:07.960Z,1013.74
2022-11-30T11:03:09.196Z,1013.702
2022-11-30T11:23:08.042Z,1013.727
2022-11-30T11:43:07.899Z,1013.694
2022-11-30T12:03:09.130Z,1013.773
2022-11-30T12:23:07.947Z,1013.888
2022-11-30T12:43:07.821Z,1013.983
2022-11-30T13:03:08.809Z,1013.958
2022-11-30T13:23:07.548Z,1014.079
2022-11-30T13:43:07.539Z,1014.228
2022-11-30T14:03:08.368Z,1014.18
2022-11-30T14:23:07.425Z,1014.283
2022-11-30T14:43:07.400Z,1014.395
2022-11-30T15:03:08.223Z,1014.495
2022-11-30T15:23:08.102Z,1014.552
2022-11-30T15:43:08.018Z,1014.656
2022-11-30T16:03:08.890Z,1014.744
2022-11-30T16:23:07.808Z,1014.791
2022-11-30T16:43:07.708Z,1014.972
2022-11-30T17:03:08.437Z,1015.091
2022-11-30T17:23:07.192Z,1015.205
2022-11-30T17:43:07.146Z,1015.382
2022-11-30T18:03:09.004Z,1015.482
2022-11-30T18:23:07.848Z,1015.592
2022-11-30T18:43:07.849Z,1015.807
2022-11-30T19:03:08.975Z,1015.92
2022-11-30T19:23:07.992Z,1015.946
2022-11-30T19:43:08.099Z,1016.031
2022-11-30T20:03:09.092Z,1016.093
2022-11-30T20:23:08.153Z,1016.181
2022-11-30T20:43:07.128Z,1016.28
2022-11-30T21:03:09.332Z,1016.311
2022-11-30T21:23:07.351Z,1016.306
2022-11-30T21:43:07.311Z,1016.446
2022-11-30T22:03:09.350Z,1016.368
2022-11-30T22:23:07.182Z,1016.34
2022-11-30T22:43:07.179Z,1016.37
2022-11-30T23:03:08.920Z,1016.355
2022-11-30T23:23:07.694Z,1016.273
2022-11-30T23:43:07.220Z,1016.317
